Time;durP1;ratioP1;P1;durP2;ratioP2;P2;SDS_P1;SDS_P2;PMS_P1;PMS_P2;Temp;Humidity;BMP_temperature;BMP_pressure;BME280_temperature;BME280_humidity;BME280_pressure;Samples;Min_cycle;Max_cycle;Signal;HPM_P1;HPM_P2
2022/01/19 00:00:09;;;;;;;0.43;0.43;;;1.30;99.90;;;;;;4994163;28;20661;-74
2022/01/19 00:02:34;;;;;;;1.53;1.50;;;1.40;99.90;;;;;;5012808;28;20782;-74
2022/01/19 00:05:00;;;;;;;0.43;0.43;;;1.40;99.90;;;;;;5004749;28;20202;-74
2022/01/19 00:07:25;;;;;;;1.47;1.07;;;1.40;99.90;;;;;;4995010;28;20202;-74
2022/01/19 00:09:51;;;;;;;1.30;1.30;;;1.50;99.90;;;;;;5012373;28;20179;-74
2022/01/19 00:12:17;;;;;;;0.23;0.23;;;1.50;99.90;;;;;;5023495;28;20673;-73
2022/01/19 00:14:42;;;;;;;1.00;1.00;;;1.50;99.90;;;;;;5011837;28;20248;-74
2022/01/19 00:17:08;;;;;;;0.40;0.40;;;1.60;99.90;;;;;;4995404;28;20680;-73
2022/01/19 00:19:33;;;;;;;0.20;0.20;;;1.60;99.90;;;;;;5002258;28;20193;-73
2022/01/19 00:21:59;;;;;;;0.50;0.50;;;1.60;99.90;;;;;;4999154;28;20740;-73
2022/01/19 00:24:24;;;;;;;0.77;0.77;;;1.50;99.90;;;;;;5012660;28;20217;-73
2022/01/19 00:26:50;;;;;;;0.10;0.10;;;1.50;99.90;;;;;;5012561;28;20179;-73
2022/01/19 00:29:15;;;;;;;0.00;0.00;;;1.40;99.90;;;;;;4994710;28;20182;-73
2022/01/19 00:31:41;;;;;;;0.10;0.10;;;1.30;99.90;;;;;;5012233;28;20269;-73
2022/01/19 00:34:06;;;;;;;0.90;0.90;;;1.20;99.90;;;;;;4994129;28;20213;-74
2022/01/19 00:36:32;;;;;;;0.10;0.10;;;1.10;99.90;;;;;;5012721;28;20189;-72
2022/01/19 00:38:57;;;;;;;1.27;1.27;;;1.10;99.90;;;;;;5029499;28;20178;-73
2022/01/19 00:41:23;;;;;;;0.53;0.53;;;1.30;99.90;;;;;;5011438;28;20209;-73
2022/01/19 00:43:48;;;;;;;0.23;0.23;;;1.40;99.90;;;;;;4994326;28;20211;-73
2022/01/19 00:46:14;;;;;;;0.53;0.53;;;1.30;99.90;;;;;;4994151;28;20186;-73
2022/01/19 00:48:41;;;;;;;0.90;0.40;;;1.30;99.90;;;;;;5011599;28;20545;-73
2022/01/19 00:51:07;;;;;;;0.10;0.10;;;1.30;99.90;;;;;;5011771;28;20170;-74
2022/01/19 00:53:33;;;;;;;3.00;1.03;;;1.30;99.90;;;;;;4993747;28;20553;-73
2022/01/19 00:55:58;;;;;;;2.33;1.03;;;1.40;99.90;;;;;;5012051;28;20171;-73
2022/01/19 00:58:24;;;;;;;1.43;1.33;;;1.50;99.90;;;;;;5011864;28;20186;-73
2022/01/19 01:00:50;;;;;;;0.20;0.20;;;1.50;99.90;;;;;;4994397;28;20175;-73
2022/01/19 01:03:16;;;;;;;1.10;0.70;;;1.40;99.90;;;;;;4998342;28;20198;-72
2022/01/19 01:05:42;;;;;;;0.23;0.23;;;1.40;99.90;;;;;;5035868;28;20186;-73
2022/01/19 01:08:08;;;;;;;0.30;0.30;;;1.50;99.90;;;;;;4998637;28;20187;-73
2022/01/19 01:10:41;;;;;;;0.27;0.27;;;1.60;99.90;;;;;;5016234;28;20185;-73
2022/01/19 01:13:21;;;;;;;2.10;1.53;;;1.70;99.90;;;;;;5023953;28;20182;-73
2022/01/19 01:15:49;;;;;;;1.10;1.10;;;1.80;99.90;;;;;;5018830;28;20181;-73
2022/01/19 01:18:18;;;;;;;0.50;0.50;;;1.70;99.90;;;;;;5036207;28;20197;-73
2022/01/19 01:20:45;;;;;;;1.50;1.40;;;1.60;99.90;;;;;;5035834;28;20178;-73
2022/01/19 01:23:10;;;;;;;0.00;0.00;;;1.70;99.90;;;;;;5016993;28;20209;-72
2022/01/19 01:25:38;;;;;;;0.23;0.23;;;1.80;99.90;;;;;;5019130;28;20244;-73
2022/01/19 01:28:05;;;;;;;0.30;0.30;;;1.80;99.90;;;;;;5024659;28;20171;-73
2022/01/19 01:30:31;;;;;;;0.10;0.10;;;1.80;99.90;;;;;;5015256;28;20171;-73
2022/01/19 01:32:57;;;;;;;1.00;1.00;;;1.80;99.90;;;;;;4997268;28;20679;-74
2022/01/19 01:35:22;;;;;;;2.23;2.10;;;1.90;99.90;;;;;;4997895;28;20219;-73
2022/01/19 01:37:48;;;;;;;0.20;0.20;;;2.00;99.90;;;;;;5022299;28;20268;-73
2022/01/19 01:40:14;;;;;;;1.40;1.33;;;2.20;99.90;;;;;;5018391;28;20750;-72
2022/01/19 01:42:41;;;;;;;0.20;0.20;;;2.40;99.90;;;;;;5014710;28;20208;-74
2022/01/19 01:45:12;;;;;;;2.60;2.50;;;2.60;99.90;;;;;;4997328;28;20287;-74
2022/01/19 01:47:43;;;;;;;1.33;1.33;;;2.70;99.90;;;;;;5015210;28;20188;-73
2022/01/19 01:55:23;;;;;;;1.90;1.33;;;3.00;99.90;;;;;;5034528;28;20209;-73
2022/01/19 01:57:49;;;;;;;1.70;1.60;;;3.10;99.90;;;;;;5017052;28;20556;-73
2022/01/19 02:00:21;;;;;;;0.30;0.30;;;3.20;99.90;;;;;;5034727;28;20190;-73
2022/01/19 02:02:48;;;;;;;1.43;1.43;;;3.20;99.90;;;;;;5034275;28;20203;-73
2022/01/19 02:05:15;;;;;;;8.70;2.17;;;3.30;99.90;;;;;;5034622;28;20200;-73
2022/01/19 02:10:19;;;;;;;0.90;0.90;;;3.40;99.90;;;;;;5035077;28;20197;-73
2022/01/19 02:15:51;;;;;;;0.70;0.70;;;3.30;99.90;;;;;;5013740;28;20627;-73
2022/01/19 02:23:49;;;;;;;1.83;1.73;;;3.20;99.90;;;;;;5014755;28;20253;-73
2022/01/19 02:26:23;;;;;;;1.27;1.27;;;3.10;99.90;;;;;;5014899;28;20185;-73
2022/01/19 02:41:59;;;;;;;3.90;2.63;;;3.00;99.90;;;;;;5027336;28;20649;-73
2022/01/19 02:49:44;;;;;;;0.57;0.57;;;3.10;99.90;;;;;;5033934;28;20180;-73
2022/01/19 02:52:10;;;;;;;2.90;2.03;;;3.20;99.90;;;;;;5033738;28;20200;-73
2022/01/19 02:54:36;;;;;;;2.87;1.37;;;3.10;99.90;;;;;;5032680;28;20217;-74
2022/01/19 02:57:03;;;;;;;6.33;3.03;;;3.10;99.90;;;;;;5033898;28;20195;-75
2022/01/19 03:10:28;;;;;;;2.20;2.10;;;2.60;99.90;;;;;;5014181;28;20274;-73
2022/01/19 03:12:54;;;;;;;4.17;2.73;;;2.50;99.90;;;;;;5038739;28;20656;-71
2022/01/19 03:15:19;;;;;;;5.27;4.97;;;2.40;99.90;;;;;;4996223;28;20220;-74
2022/01/19 03:17:45;;;;;;;6.67;5.40;;;2.40;99.90;;;;;;5013826;28;20210;-74
2022/01/19 03:20:11;;;;;;;2.50;2.03;;;2.30;99.90;;;;;;5013580;28;20716;-74
2022/01/19 03:22:48;;;;;;;2.23;2.13;;;2.20;99.90;;;;;;5012934;28;20204;-74
2022/01/19 03:25:14;;;;;;;1.70;1.60;;;2.10;99.90;;;;;;4995508;28;20693;-75
2022/01/19 03:27:40;;;;;;;0.13;0.13;;;2.00;99.90;;;;;;5013397;28;20268;-77
2022/01/19 03:30:07;;;;;;;3.23;2.10;;;1.90;99.90;;;;;;4996144;28;20206;-74
2022/01/19 03:32:33;;;;;;;0.70;0.70;;;1.90;99.90;;;;;;4995419;28;20207;-74
2022/01/19 03:34:59;;;;;;;1.03;1.03;;;1.90;99.90;;;;;;4995979;28;20595;-74
2022/01/19 03:37:25;;;;;;;1.80;1.67;;;1.90;99.90;;;;;;5032900;28;20228;-74
2022/01/19 03:39:51;;;;;;;1.03;1.03;;;1.90;99.90;;;;;;5032626;28;20186;-74
2022/01/19 03:42:16;;;;;;;0.30;0.30;;;1.90;99.90;;;;;;5032341;28;20209;-76
2022/01/19 03:44:43;;;;;;;2.63;2.00;;;1.80;99.90;;;;;;5032460;28;20897;-74
2022/01/19 03:47:09;;;;;;;2.30;2.10;;;2.00;99.90;;;;;;5032649;28;20191;-76
2022/01/19 03:49:34;;;;;;;1.30;1.30;;;2.10;99.90;;;;;;5032710;28;20178;-74
2022/01/19 03:52:02;;;;;;;0.97;0.83;;;2.30;99.90;;;;;;5032792;28;20187;-74
2022/01/19 03:54:30;;;;;;;1.80;1.70;;;2.60;99.90;;;;;;5033114;28;20704;-74
2022/01/19 03:56:56;;;;;;;7.60;4.20;;;2.70;99.90;;;;;;5033373;28;20580;-73
2022/01/19 03:59:22;;;;;;;5.00;1.43;;;2.80;99.90;;;;;;5015164;28;20266;-74
2022/01/19 04:01:51;;;;;;;1.03;1.00;;;3.00;99.90;;;;;;5032577;28;20227;-75
2022/01/19 04:09:17;;;;;;;0.47;0.47;;;3.30;99.90;;;;;;5033695;28;20188;-74
2022/01/19 04:11:43;;;;;;;1.77;1.67;;;3.40;99.90;;;;;;5024004;28;20192;-74
2022/01/19 04:16:34;;;;;;;0.43;0.43;;;3.50;99.90;;;;;;5013849;28;20795;-74
2022/01/19 04:19:21;;;;;;;0.93;0.93;;;3.60;99.90;;;;;;5012824;28;20195;-74
2022/01/19 04:21:47;;;;;;;0.77;0.77;;;3.60;99.90;;;;;;4996072;28;20215;-73
2022/01/19 04:24:12;;;;;;;0.33;0.27;;;3.70;99.90;;;;;;4994988;28;20224;-73
2022/01/19 04:26:38;;;;;;;0.30;0.30;;;3.70;99.90;;;;;;4994646;28;20184;-74
2022/01/19 04:29:03;;;;;;;0.10;0.10;;;3.80;99.90;;;;;;5013389;28;20184;-75
2022/01/19 04:31:29;;;;;;;3.30;0.93;;;3.80;99.90;;;;;;5012666;28;20181;-74
2022/01/19 04:33:59;;;;;;;0.80;0.80;;;3.70;99.90;;;;;;5012459;28;20588;-74
2022/01/19 04:36:32;;;;;;;1.73;1.63;;;3.70;99.90;;;;;;5012338;28;20188;-74
2022/01/19 05:06:12;;;;;;;0.60;0.60;;;3.70;99.90;;;;;;5031574;28;20699;-74
2022/01/19 05:08:50;;;;;;;0.13;0.13;;;3.60;99.90;;;;;;5013466;28;20174;-74
2022/01/19 05:14:00;;;;;;;0.50;0.50;;;3.60;99.90;;;;;;5021363;28;20209;-74
2022/01/19 05:16:26;;;;;;;0.57;0.57;;;3.70;99.90;;;;;;4993848;28;20796;-73
2022/01/19 05:18:52;;;;;;;0.10;0.10;;;3.70;99.90;;;;;;4994074;28;20182;-73
2022/01/19 05:21:18;;;;;;;2.00;1.80;;;3.70;99.90;;;;;;5011653;28;20377;-72
2022/01/19 05:23:44;;;;;;;0.43;0.40;;;3.70;99.90;;;;;;5011385;28;20729;-73
2022/01/19 05:26:09;;;;;;;0.83;0.83;;;3.70;99.90;;;;;;5012012;28;20257;-74
2022/01/19 05:28:36;;;;;;;0.33;0.33;;;3.70;99.90;;;;;;5012044;28;20194;-75
2022/01/19 05:31:01;;;;;;;0.10;0.10;;;3.70;99.90;;;;;;5011940;28;20185;-76
2022/01/19 05:33:27;;;;;;;0.40;0.40;;;3.80;99.90;;;;;;5007642;28;20558;-74
2022/01/19 05:35:52;;;;;;;0.10;0.10;;;3.70;99.90;;;;;;5021537;28;20185;-73
2022/01/19 05:38:18;;;;;;;1.67;1.57;;;3.70;99.90;;;;;;5031606;28;20619;-73
2022/01/19 05:40:44;;;;;;;0.20;0.20;;;3.80;99.90;;;;;;5032795;28;20668;-73
2022/01/19 05:43:10;;;;;;;0.73;0.73;;;3.80;99.90;;;;;;5033631;28;20238;-73
2022/01/19 05:45:36;;;;;;;2.10;1.37;;;3.80;99.90;;;;;;5033199;28;20170;-73
2022/01/19 05:48:01;;;;;;;1.97;1.43;;;3.80;99.90;;;;;;5035622;28;20215;-73
2022/01/19 05:50:27;;;;;;;0.20;0.20;;;3.80;99.90;;;;;;5024837;28;20169;-73
2022/01/19 05:52:53;;;;;;;0.50;0.50;;;3.80;99.90;;;;;;5023992;28;20183;-73
2022/01/19 05:55:19;;;;;;;0.70;0.70;;;3.80;99.90;;;;;;5019880;28;20237;-74
2022/01/19 05:57:45;;;;;;;1.33;1.23;;;3.80;99.90;;;;;;5011930;28;20187;-73
2022/01/19 06:00:11;;;;;;;1.67;1.57;;;3.80;99.90;;;;;;5033103;28;20184;-75
2022/01/19 06:02:37;;;;;;;0.30;0.30;;;3.80;99.90;;;;;;5030066;28;20734;-74
2022/01/19 06:05:04;;;;;;;0.23;0.23;;;3.80;99.90;;;;;;5025647;28;20287;-73
2022/01/19 06:07:31;;;;;;;0.10;0.10;;;3.80;99.90;;;;;;5017908;28;20255;-74
2022/01/19 06:10:08;;;;;;;0.33;0.33;;;3.80;99.90;;;;;;4996860;28;20190;-73
2022/01/19 06:12:34;;;;;;;0.57;0.57;;;3.80;99.90;;;;;;5039016;28;20208;-75
2022/01/19 06:15:00;;;;;;;1.13;1.13;;;3.80;99.90;;;;;;5013596;28;20210;-73
2022/01/19 06:17:26;;;;;;;0.63;0.63;;;3.80;99.90;;;;;;5013780;28;20268;-71
2022/01/19 06:19:52;;;;;;;0.37;0.37;;;3.80;99.90;;;;;;5014105;28;20280;-74
2022/01/19 06:22:18;;;;;;;0.37;0.37;;;3.80;99.90;;;;;;5013943;28;20219;-74
2022/01/19 06:24:44;;;;;;;0.67;0.67;;;3.80;99.90;;;;;;5013348;28;20300;-74
2022/01/19 06:27:10;;;;;;;0.23;0.23;;;3.80;99.90;;;;;;5026863;28;20281;-74
2022/01/19 06:29:36;;;;;;;1.23;1.20;;;3.80;99.90;;;;;;5024046;28;20193;-73
2022/01/19 06:32:02;;;;;;;0.67;0.67;;;3.80;99.90;;;;;;5033553;28;20612;-74
2022/01/19 06:34:27;;;;;;;2.20;1.07;;;3.70;99.90;;;;;;5033511;28;20748;-75
2022/01/19 06:36:53;;;;;;;0.57;0.57;;;3.80;99.90;;;;;;5015893;28;20190;-72
2022/01/19 06:39:22;;;;;;;2.00;1.80;;;3.80;99.90;;;;;;5033280;28;20220;-72
2022/01/19 06:41:48;;;;;;;0.30;0.30;;;3.80;99.90;;;;;;5033009;28;20212;-72
2022/01/19 06:44:14;;;;;;;0.30;0.30;;;3.80;99.90;;;;;;5033308;28;20258;-72
2022/01/19 06:46:41;;;;;;;1.33;1.33;;;3.70;99.90;;;;;;5033007;28;20181;-72
2022/01/19 06:49:07;;;;;;;0.10;0.10;;;3.70;99.90;;;;;;5033511;28;20196;-72
2022/01/19 06:51:32;;;;;;;0.77;0.77;;;3.80;99.90;;;;;;5016215;28;20198;-74
2022/01/19 06:53:58;;;;;;;1.27;1.13;;;3.70;99.90;;;;;;5013141;28;20213;-72
2022/01/19 06:56:24;;;;;;;0.63;0.63;;;3.80;99.90;;;;;;5012960;28;20180;-73
2022/01/19 06:58:50;;;;;;;1.27;1.17;;;3.80;99.90;;;;;;5013000;28;20212;-73
2022/01/19 07:01:16;;;;;;;0.00;0.00;;;3.80;99.90;;;;;;5012736;28;20186;-75
2022/01/19 07:03:41;;;;;;;0.10;0.10;;;3.70;99.90;;;;;;5013307;28;20292;-73
2022/01/19 07:06:11;;;;;;;1.10;0.50;;;3.70;99.90;;;;;;5029949;28;20191;-70
2022/01/19 07:08:39;;;;;;;1.57;1.47;;;3.70;99.90;;;;;;5032935;28;20183;-73
2022/01/19 07:11:05;;;;;;;1.57;1.10;;;3.70;99.90;;;;;;5018515;28;20559;-73
2022/01/19 07:13:30;;;;;;;0.83;0.83;;;3.70;99.90;;;;;;5030555;28;20220;-72
2022/01/19 07:15:56;;;;;;;0.27;0.27;;;;;;;;;;5012893;28;20212;-72
2022/01/19 07:18:22;;;;;;;0.57;0.57;;;3.70;99.90;;;;;;5012738;28;20646;-73
2022/01/19 07:20:48;;;;;;;0.77;0.77;;;3.80;99.90;;;;;;5016516;28;20181;-72
2022/01/19 07:23:14;;;;;;;0.10;0.10;;;;;;;;;;5038976;28;20208;-70
2022/01/19 07:25:39;;;;;;;2.50;1.00;;;3.70;99.90;;;;;;4998697;28;20190;-72
2022/01/19 07:28:08;;;;;;;0.20;0.20;;;3.80;99.90;;;;;;5039163;23;20769;-74
2022/01/19 07:30:34;;;;;;;1.50;1.40;;;;;;;;;;5032868;28;20170;-76
2022/01/19 07:33:00;;;;;;;0.30;0.30;;;;;;;;;;5030444;28;20655;-76
2022/01/19 07:35:26;;;;;;;0.83;0.83;;;3.90;99.90;;;;;;5031213;28;20221;-76
2022/01/19 07:37:52;;;;;;;0.40;0.40;;;3.80;99.90;;;;;;5022725;28;20586;-75
2022/01/19 07:40:18;;;;;;;0.93;0.93;;;3.80;99.90;;;;;;5012124;28;20261;-75
2022/01/19 07:42:43;;;;;;;0.93;0.40;;;3.70;99.90;;;;;;5011138;28;20701;-74
2022/01/19 07:45:09;;;;;;;0.97;0.97;;;3.70;99.90;;;;;;5011927;28;20182;-74
2022/01/19 07:47:35;;;;;;;0.90;0.90;;;3.70;99.90;;;;;;5011637;28;20685;-74
2022/01/19 07:50:00;;;;;;;1.43;1.43;;;3.70;99.90;;;;;;5011608;28;20186;-74
2022/01/19 07:52:26;;;;;;;0.83;0.83;;;3.80;99.90;;;;;;5011223;28;20198;-74
2022/01/19 07:54:52;;;;;;;2.20;2.10;;;3.70;99.90;;;;;;5011759;28;20190;-75
2022/01/19 07:57:17;;;;;;;0.53;0.53;;;3.70;99.90;;;;;;5011525;28;20292;-74
2022/01/19 07:59:43;;;;;;;0.77;0.77;;;3.70;99.90;;;;;;5011588;28;20193;-74
2022/01/19 08:02:11;;;;;;;0.87;0.87;;;3.70;99.90;;;;;;5010823;28;20210;-74
2022/01/19 08:04:37;;;;;;;0.77;0.77;;;3.80;99.90;;;;;;5016724;28;20174;-74
2022/01/19 08:07:03;;;;;;;1.67;1.57;;;3.80;99.90;;;;;;5030871;28;20702;-74
2022/01/19 08:09:31;;;;;;;0.37;0.37;;;3.80;99.90;;;;;;5031108;28;20192;-74
2022/01/19 08:11:56;;;;;;;1.43;0.63;;;3.80;99.90;;;;;;5041409;28;20586;-74
2022/01/19 08:14:24;;;;;;;0.43;0.43;;;;;;;;;;5015508;28;20186;-75
2022/01/19 08:16:50;;;;;;;3.30;1.10;;;;;;;;;;5011844;28;20320;-74
2022/01/19 08:19:16;;;;;;;0.30;0.30;;;3.80;99.90;;;;;;5011338;28;20178;-75
2022/01/19 08:21:41;;;;;;;2.47;1.47;;;4.00;99.90;;;;;;5011297;28;20210;-75
2022/01/19 08:24:07;;;;;;;0.20;0.20;;;3.90;99.90;;;;;;5010281;28;20193;-74
2022/01/19 08:26:32;;;;;;;1.00;1.00;;;3.80;99.90;;;;;;5011636;28;20174;-75
2022/01/19 08:28:58;;;;;;;1.80;1.07;;;3.80;99.90;;;;;;5028206;28;20366;-74
2022/01/19 08:31:24;;;;;;;0.47;0.47;;;3.90;99.90;;;;;;5013237;28;20193;-74
2022/01/19 08:33:49;;;;;;;0.40;0.40;;;3.90;99.90;;;;;;5030420;28;20259;-74
2022/01/19 08:36:16;;;;;;;0.70;0.70;;;;;;;;;;5030939;28;20192;-74
2022/01/19 08:38:42;;;;;;;0.50;0.50;;;4.00;99.90;;;;;;5013004;28;20197;-74
2022/01/19 08:41:08;;;;;;;1.47;0.87;;;4.10;99.90;;;;;;5031096;28;20177;-74
2022/01/19 08:43:34;;;;;;;0.30;0.30;;;3.90;99.90;;;;;;5012855;28;20209;-75
2022/01/19 08:46:00;;;;;;;1.30;0.87;;;4.00;99.90;;;;;;5030667;28;20203;-74
2022/01/19 08:48:26;;;;;;;1.60;1.50;;;4.00;99.90;;;;;;5030537;28;20197;-74
2022/01/19 08:50:53;;;;;;;2.80;2.60;;;4.00;99.90;;;;;;5031095;28;20247;-75
2022/01/19 08:53:18;;;;;;;0.87;0.87;;;4.00;99.90;;;;;;5030600;28;20177;-75
2022/01/19 08:55:44;;;;;;;0.63;0.63;;;4.00;99.90;;;;;;5031040;28;20196;-75
2022/01/19 08:58:10;;;;;;;2.13;1.57;;;4.00;99.90;;;;;;5048266;28;20205;-74
2022/01/19 09:00:37;;;;;;;1.43;1.43;;;4.10;99.90;;;;;;5032995;28;20284;-74
2022/01/19 09:03:02;;;;;;;2.90;1.80;;;4.10;99.90;;;;;;5032300;28;20797;-74
2022/01/19 09:05:28;;;;;;;0.83;0.83;;;4.10;99.90;;;;;;5050240;28;20256;-74
2022/01/19 09:07:54;;;;;;;1.10;1.10;;;4.20;99.90;;;;;;5050485;28;20549;-75
2022/01/19 09:10:22;;;;;;;2.67;0.90;;;4.20;99.90;;;;;;5050248;28;20549;-74
2022/01/19 09:12:47;;;;;;;1.33;0.83;;;4.20;99.90;;;;;;5059094;28;20572;-74
2022/01/19 09:15:15;;;;;;;2.93;1.57;;;4.30;99.90;;;;;;5030558;28;20189;-75
2022/01/19 09:17:43;;;;;;;0.67;0.67;;;4.30;99.90;;;;;;5035719;28;20623;-74
2022/01/19 09:20:10;;;;;;;2.17;2.07;;;4.30;99.90;;;;;;5020892;28;20178;-75
2022/01/19 09:22:36;;;;;;;3.17;2.90;;;4.30;99.90;;;;;;5030354;28;20205;-74
2022/01/19 09:25:03;;;;;;;2.13;2.00;;;4.30;99.90;;;;;;5033959;28;20236;-74
2022/01/19 09:27:29;;;;;;;1.50;1.40;;;4.30;99.90;;;;;;5016265;28;20209;-74
2022/01/19 09:29:54;;;;;;;2.77;1.90;;;4.30;99.90;;;;;;5016544;28;20281;-74
2022/01/19 09:32:20;;;;;;;0.67;0.67;;;4.30;99.90;;;;;;5034014;28;20198;-75
2022/01/19 09:34:55;;;;;;;1.63;1.50;;;4.30;99.90;;;;;;5033791;28;20178;-74
2022/01/19 09:37:21;;;;;;;0.80;0.80;;;4.30;99.90;;;;;;5016559;28;20197;-74
2022/01/19 09:39:46;;;;;;;0.93;0.93;;;4.30;99.90;;;;;;5034073;28;20688;-74
2022/01/19 09:42:12;;;;;;;1.63;1.53;;;4.30;99.90;;;;;;5033838;28;20210;-74
2022/01/19 09:44:38;;;;;;;8.63;3.47;;;4.30;99.90;;;;;;5016629;28;20181;-74
2022/01/19 09:47:04;;;;;;;0.20;0.20;;;4.30;99.90;;;;;;5034015;28;20181;-74
2022/01/19 09:49:30;;;;;;;2.30;2.10;;;4.30;99.90;;;;;;5050045;28;20686;-74
2022/01/19 09:51:55;;;;;;;1.67;1.57;;;4.30;99.90;;;;;;5032995;28;20193;-72
2022/01/19 09:54:26;;;;;;;0.43;0.43;;;4.30;99.90;;;;;;5053519;28;20692;-74
2022/01/19 09:56:53;;;;;;;1.53;1.53;;;4.30;99.90;;;;;;5052748;28;20384;-74
2022/01/19 09:59:19;;;;;;;0.20;0.20;;;4.30;99.90;;;;;;5030938;28;20233;-72
2022/01/19 10:02:03;;;;;;;1.57;1.03;;;4.30;99.90;;;;;;5031835;28;20224;-72
2022/01/19 10:04:32;;;;;;;0.97;0.40;;;4.30;99.90;;;;;;5052118;28;20181;-72
2022/01/19 10:07:19;;;;;;;3.60;2.20;;;4.30;99.90;;;;;;5049261;28;20652;-73
2022/01/19 10:09:59;;;;;;;1.03;1.03;;;4.30;99.90;;;;;;5053524;28;20260;-74
2022/01/19 10:18:05;;;;;;;2.47;1.70;;;4.30;99.90;;;;;;5039821;28;20302;-74
2022/01/19 10:20:30;;;;;;;1.20;1.13;;;4.30;99.90;;;;;;5053182;28;20667;-73
2022/01/19 10:22:56;;;;;;;0.90;0.90;;;4.30;99.90;;;;;;5052985;28;20209;-74
2022/01/19 10:25:22;;;;;;;2.03;1.93;;;4.30;99.90;;;;;;5052853;28;20268;-74
2022/01/19 10:27:47;;;;;;;1.27;0.73;;;4.40;99.90;;;;;;5034475;28;20217;-74
2022/01/19 10:30:21;;;;;;;1.23;1.23;;;4.40;99.90;;;;;;5052900;28;20177;-74
2022/01/19 10:32:55;;;;;;;0.27;0.27;;;4.40;99.90;;;;;;5052681;28;20669;-74
2022/01/19 10:35:25;;;;;;;2.33;1.87;;;4.40;99.90;;;;;;5052007;28;20174;-74
2022/01/19 10:38:15;;;;;;;0.83;0.83;;;4.40;99.90;;;;;;5053049;28;20207;-74
2022/01/19 10:41:04;;;;;;;3.70;1.87;;;4.40;99.90;;;;;;5052838;28;20212;-73
2022/01/19 10:43:35;;;;;;;2.17;2.07;;;4.50;99.90;;;;;;5052024;28;20223;-74
2022/01/19 10:46:27;;;;;;;0.90;0.90;;;4.40;99.90;;;;;;5052895;28;20648;-74
2022/01/19 10:49:07;;;;;;;3.40;2.37;;;4.50;99.90;;;;;;5052642;28;20564;-74
2022/01/19 10:51:47;;;;;;;0.70;0.70;;;4.50;99.90;;;;;;5034506;28;20184;-74
2022/01/19 10:54:22;;;;;;;4.70;2.90;;;4.50;99.90;;;;;;5052802;28;20188;-74
2022/01/19 10:56:54;;;;;;;0.60;0.60;;;4.60;99.90;;;;;;5052686;28;20259;-74
2022/01/19 10:59:25;;;;;;;0.77;0.77;;;4.60;99.90;;;;;;5052422;28;20230;-74
2022/01/19 11:01:55;;;;;;;2.63;2.53;;;4.60;99.90;;;;;;5052293;28;20371;-73
2022/01/19 11:04:21;;;;;;;0.67;0.67;;;4.60;99.90;;;;;;5052406;28;20279;-74
2022/01/19 11:06:48;;;;;;;1.73;1.43;;;4.60;99.90;;;;;;5052473;28;20256;-74
2022/01/19 11:09:14;;;;;;;0.53;0.53;;;4.70;99.90;;;;;;5052102;28;20208;-74
2022/01/19 11:11:43;;;;;;;0.50;0.50;;;4.70;99.90;;;;;;5060689;28;20298;-74
2022/01/19 11:14:13;;;;;;;2.73;2.33;;;4.70;99.90;;;;;;5040338;28;20174;-74
2022/01/19 11:16:39;;;;;;;2.97;2.77;;;4.70;99.90;;;;;;5032251;28;20178;-73
2022/01/19 11:19:04;;;;;;;2.07;1.93;;;4.70;99.90;;;;;;5031897;28;20227;-74
2022/01/19 11:21:39;;;;;;;1.63;1.53;;;4.80;99.90;;;;;;5031871;28;20228;-74
2022/01/19 11:24:17;;;;;;;6.93;2.73;;;4.80;99.90;;;;;;5032159;28;20193;-74
2022/01/19 11:26:43;;;;;;;2.57;2.40;;;4.70;99.90;;;;;;5032303;28;20180;-74
2022/01/19 11:29:20;;;;;;;4.30;2.70;;;4.70;99.90;;;;;;5013735;28;20498;-74
2022/01/19 11:31:48;;;;;;;0.60;0.60;;;4.70;99.90;;;;;;5031551;28;20268;-74
2022/01/19 11:34:14;;;;;;;3.80;2.23;;;4.80;99.90;;;;;;5014106;28;20189;-74
2022/01/19 11:36:42;;;;;;;28.03;3.13;;;4.80;99.90;;;;;;5032012;28;20744;-74
2022/01/19 11:39:22;;;;;;;2.67;1.87;;;4.80;99.90;;;;;;5031718;28;20546;-74
2022/01/19 11:41:47;;;;;;;1.60;1.50;;;4.80;99.90;;;;;;5031481;28;20229;-73
2022/01/19 11:44:38;;;;;;;2.80;2.70;;;4.80;99.90;;;;;;5031728;28;20308;-73
2022/01/19 11:47:09;;;;;;;1.80;1.70;;;4.80;99.90;;;;;;5023985;28;20240;-74
2022/01/19 11:49:54;;;;;;;3.30;3.00;;;4.80;99.90;;;;;;5013003;28;20212;-72
2022/01/19 11:52:23;;;;;;;6.67;4.63;;;4.70;99.90;;;;;;5047986;28;20645;-73
2022/01/19 11:54:50;;;;;;;2.00;1.90;;;4.70;99.90;;;;;;5034233;28;20588;-74
2022/01/19 11:57:18;;;;;;;1.90;1.60;;;4.70;99.90;;;;;;5047787;28;20204;-73
2022/01/19 11:59:43;;;;;;;0.77;0.77;;;4.80;99.90;;;;;;5013569;28;20185;-74
2022/01/19 12:02:23;;;;;;;1.23;1.13;;;4.80;99.90;;;;;;5031046;28;20212;-74
2022/01/19 12:04:54;;;;;;;1.13;1.13;;;4.70;99.90;;;;;;5037744;28;20181;-74
2022/01/19 12:07:37;;;;;;;2.23;2.00;;;4.80;99.90;;;;;;5048852;28;20193;-74
2022/01/19 12:10:15;;;;;;;2.33;2.23;;;4.70;99.90;;;;;;5051166;28;20177;-74
2022/01/19 12:13:08;;;;;;;1.97;1.20;;;4.70;99.90;;;;;;5058164;28;20263;-74
2022/01/19 12:15:54;;;;;;;0.67;0.67;;;4.70;99.90;;;;;;5030431;28;20847;-74
2022/01/19 12:18:40;;;;;;;2.13;1.97;;;4.70;99.90;;;;;;5031041;28;20197;-74
2022/01/19 12:21:07;;;;;;;2.10;2.00;;;4.80;99.90;;;;;;5031325;28;20185;-74
2022/01/19 12:23:35;;;;;;;2.33;1.60;;;4.80;99.90;;;;;;5030663;28;20593;-73
2022/01/19 12:26:03;;;;;;;3.30;2.87;;;4.80;99.90;;;;;;5031350;28;20185;-74
2022/01/19 12:28:50;;;;;;;2.20;2.10;;;4.80;99.90;;;;;;5030713;28;20270;-73
2022/01/19 12:31:25;;;;;;;0.83;0.80;;;4.80;99.90;;;;;;5030781;28;20178;-73
2022/01/19 12:34:06;;;;;;;2.33;1.27;;;4.80;99.90;;;;;;5013161;28;20181;-73
2022/01/19 12:36:50;;;;;;;2.80;2.33;;;4.80;99.90;;;;;;5012938;28;20192;-73
2022/01/19 12:39:25;;;;;;;1.23;1.23;;;4.80;99.90;;;;;;5030756;28;20253;-73
2022/01/19 12:42:13;;;;;;;1.07;0.73;;;4.80;99.90;;;;;;5030788;28;20203;-73
2022/01/19 12:44:53;;;;;;;1.50;1.47;;;4.80;99.90;;;;;;5031092;28;20169;-73
2022/01/19 12:47:24;;;;;;;1.30;1.20;;;4.70;99.90;;;;;;5013278;28;20204;-74
2022/01/19 12:49:54;;;;;;;2.33;2.20;;;4.70;99.90;;;;;;5030753;28;20185;-73
2022/01/19 12:52:22;;;;;;;2.27;2.07;;;4.70;99.90;;;;;;5030568;28;20235;-74
2022/01/19 12:54:48;;;;;;;0.63;0.63;;;4.60;99.90;;;;;;5013343;28;20665;-73
2022/01/19 12:57:17;;;;;;;2.17;2.07;;;4.70;99.90;;;;;;5030868;28;20538;-73
2022/01/19 12:59:45;;;;;;;4.17;2.30;;;4.70;99.90;;;;;;5033015;28;20731;-73
2022/01/19 13:02:13;;;;;;;1.63;1.50;;;4.70;99.90;;;;;;5034599;28;20198;-73
2022/01/19 13:04:41;;;;;;;1.60;1.57;;;4.70;99.90;;;;;;5039357;28;20173;-74
2022/01/19 13:07:27;;;;;;;1.60;1.50;;;4.70;99.90;;;;;;5054608;28;20177;-74
2022/01/19 13:10:19;;;;;;;2.20;2.07;;;4.70;99.90;;;;;;5054523;28;20173;-76
2022/01/19 13:15:21;;;;;;;1.63;1.57;;;4.70;99.90;;;;;;5034664;28;20241;-73
2022/01/19 13:17:50;;;;;;;2.43;2.30;;;4.70;99.90;;;;;;5034610;28;20217;-74
2022/01/19 13:20:21;;;;;;;2.97;2.70;;;4.70;99.90;;;;;;5034472;28;20713;-74
2022/01/19 13:22:52;;;;;;;2.37;1.27;;;4.70;99.90;;;;;;5034114;28;20201;-74
2022/01/19 13:25:25;;;;;;;1.80;1.70;;;4.70;99.90;;;;;;5034525;28;20279;-73
2022/01/19 13:27:54;;;;;;;1.80;1.27;;;4.70;99.90;;;;;;5060898;22;20209;-72
2022/01/19 13:30:20;;;;;;;4.27;3.13;;;4.70;99.90;;;;;;5058151;28;20686;-72
2022/01/19 13:32:45;;;;;;;2.73;2.57;;;4.80;99.90;;;;;;5056950;28;20189;-72
2022/01/19 13:35:11;;;;;;;0.73;0.73;;;4.80;99.90;;;;;;5058240;28;20283;-73
2022/01/19 13:37:58;;;;;;;2.23;2.07;;;4.80;99.90;;;;;;5073340;28;20176;-71
2022/01/19 13:40:30;;;;;;;6.43;1.47;;;4.70;99.90;;;;;;5074311;28;20184;-73
2022/01/19 13:43:11;;;;;;;5.60;3.77;;;4.70;99.90;;;;;;5073959;28;20613;-72
2022/01/19 13:48:28;;;;;;;0.80;0.80;;;4.60;99.90;;;;;;5074718;28;20254;-72
2022/01/19 13:51:01;;;;;;;4.40;3.30;;;4.60;99.90;;;;;;5056769;28;20184;-71
2022/01/19 13:53:31;;;;;;;2.13;2.03;;;4.60;99.90;;;;;;5074244;28;20192;-72
2022/01/19 13:55:58;;;;;;;5.30;4.10;;;4.60;99.90;;;;;;5056302;28;20188;-72
2022/01/19 13:58:34;;;;;;;2.10;1.93;;;4.50;99.90;;;;;;5074496;28;20253;-72
2022/01/19 14:01:07;;;;;;;5.70;2.17;;;4.50;99.90;;;;;;5074178;28;20659;-71
2022/01/19 14:03:57;;;;;;;0.43;0.43;;;4.50;99.90;;;;;;5074132;28;20200;-72
2022/01/19 14:06:49;;;;;;;6.17;2.50;;;4.50;99.90;;;;;;5055154;28;20177;-73
2022/01/19 14:09:21;;;;;;;1.60;1.53;;;4.60;99.90;;;;;;5066460;28;20209;-72
2022/01/19 14:12:10;;;;;;;1.70;1.60;;;4.50;99.90;;;;;;5063189;28;20567;-72
2022/01/19 14:14:56;;;;;;;2.87;2.73;;;4.50;99.90;;;;;;5074623;28;20634;-72
2022/01/19 14:17:33;;;;;;;0.67;0.67;;;4.50;99.90;;;;;;5075003;28;20179;-72
2022/01/19 14:20:00;;;;;;;2.60;1.80;;;4.50;99.90;;;;;;5056784;28;20666;-72
2022/01/19 14:22:32;;;;;;;3.03;2.73;;;4.50;99.90;;;;;;5069765;28;20200;-72
2022/01/19 14:25:10;;;;;;;3.27;1.77;;;4.50;99.90;;;;;;5065252;28;20183;-73
2022/01/19 14:27:47;;;;;;;1.37;1.33;;;4.50;99.90;;;;;;5074397;28;20187;-72
2022/01/19 14:30:28;;;;;;;1.37;1.27;;;4.50;99.90;;;;;;5075371;28;20184;-72
2022/01/19 14:33:09;;;;;;;3.70;3.13;;;4.50;99.90;;;;;;5064312;28;20709;-71
2022/01/19 14:35:40;;;;;;;2.13;1.97;;;4.40;99.90;;;;;;5074612;28;20175;-73
2022/01/19 14:38:27;;;;;;;0.70;0.70;;;4.40;99.90;;;;;;5073951;28;20207;-72
2022/01/19 14:41:16;;;;;;;2.40;2.30;;;4.30;99.90;;;;;;5071758;28;20337;-73
2022/01/19 14:43:53;;;;;;;2.83;2.63;;;4.30;99.90;;;;;;5053059;28;20205;-72